Latest Coastal Weather Observations for Ulladulla

IDN60701

Issued at 8:51 am EST Wednesday 19 June 2019 (issued every 10 minutes, with the page automatically refreshed every 10 minutes)

About coastal observations | Map of coastal stations | Coastal observations for NSW | Marine services | Other Formats
Station Details ID: 069138 Name: ULLADULLA AWS Lat: -35.36 Lon: 150.48 Height: 35.7 m
Data from the previous 72 hours. | See also: Recent months at Ulladulla
Date/Time
EST
Wind Sea
Height
m
Swell Vis
km
Cloud Weather Temp
°C
Press
hPa
Rain since
9am
mm
Dir  Spd
kts
Gust
kts
Height
m
Period
s
Dir
19/08:30am WSW 4 6 - - - - - - - 10.4 1021.7 0.0
19/08:00am WSW 5 7 - - - - - - - 9.2 1021.2 0.0
19/07:30am WSW 5 7 - - - - - - - 7.8 1020.8 0.0
19/07:00am WSW 5 7 - - - - - - - 7.8 1020.5 0.0
19/06:30am W 4 6 - - - - - - - 7.9 1020.2 0.0
19/06:00am WSW 5 7 - - - - - - - 8.1 1019.8 0.0
19/05:30am WSW 6 9 - - - - - - - 8.7 1019.3 0.0
19/05:00am W 4 6 - - - - - - - 8.8 1019.1 0.0
19/04:30am W 4 7 - - - - - - - 9.1 1018.9 0.0
19/04:00am WNW 4 8 - - - - - - - 9.5 1018.8 0.0
19/03:30am W 5 9 - - - - - - - 9.8 1018.7 0.0
19/03:00am W 6 9 - - - - - - - 9.9 1018.5 0.0
19/02:30am WSW 5 7 - - - - - - - 10.1 1018.4 0.0
19/02:00am W 4 7 - - - - - - - 10.5 1018.3 0.0
19/01:30am W 5 9 - - - - - - - 11.2 1018.1 0.0
19/01:00am W 6 11 - - - - - - - 11.4 1018.2 0.0
19/12:30am W 7 15 - - - - - - - 11.7 1018.1 0.0
19/12:00am W 6 13 - - - - - - - 11.8 1018.1 0.0
 
Date/Time
EST
Wind Sea
Height
m
Swell Vis
km
Cloud Weather Temp
°C
Press
hPa
Rain since
9am
mm
Dir  Spd
kts
Gust
kts
Height
m
Period
s
Dir
18/11:30pm WNW 6 11 - - - - - - - 11.9 1018.1 0.0
18/11:00pm WNW 8 14 - - - - - - - 12.3 1018.1 0.0
18/10:30pm WNW 7 12 - - - - - - - 12.4 1018.1 0.0
18/10:00pm WNW 6 11 - - - - - - - 12.7 1018.1 0.0
18/09:30pm W 6 12 - - - - - - - 13.1 1017.9 0.0
18/09:00pm W 7 13 - - - - - - - 13.4 1017.7 0.0
18/08:30pm W 8 14 - - - - - - - 13.7 1017.5 0.0
18/08:00pm WNW 7 13 - - - - - - - 13.9 1017.6 0.0
18/07:30pm WNW 7 13 - - - - - - - 14.0 1017.5 0.0
18/07:00pm WNW 7 13 - - - - - - - 14.3 1017.3 0.0
18/06:30pm WNW 8 12 - - - - - - - 14.7 1017.3 0.0
18/06:00pm WNW 5 10 - - - - - - - 14.9 1017.2 0.0
18/05:30pm W 4 8 - - - - - - - 14.8 1017.0 0.0
18/05:00pm WNW 3 7 - - - - - - - 15.1 1016.8 0.0
18/04:30pm WSW 5 8 - - - - - - - 15.3 1016.7 0.0
18/04:00pm W 5 10 - - - - - - - 16.1 1016.5 0.0
18/03:30pm WSW 3 7 - - - - - - - 16.6 1016.6 0.0
18/03:00pm W 1 2 - - - - - - - 17.4 1016.4 0.0
18/02:30pm WNW 2 4 - - - - - - - 17.8 1016.4 0.0
18/02:00pm WNW 2 4 - - - - - - - 17.8 1016.4 0.0
18/01:30pm NNW 3 5 - - - - - - - 18.1 1016.7 0.0
18/01:00pm NNW 4 7 - - - - - - - 17.7 1017.1 0.0
18/12:30pm NNW 6 9 - - - - - - - 17.4 1017.7 0.0
18/12:00pm NW 5 8 - - - - - - - 17.3 1018.2 0.0
18/11:30am ENE 1 3 - - - - - - - 16.9 1018.7 0.0
18/11:00am ESE 1 3 - - - - - - - 17.7 1019.1 0.0
18/10:30am N 1 2 - - - - - - - 16.6 1019.5 0.0
18/10:00am NNW 2 4 - - - - - - - 16.9 1019.7 0.0
18/09:30am NW 3 4 - - - - - - - 15.7 1020.0 0.0
18/09:00am NW 3 4 - - - - - - - 14.3 1020.0 1.2
18/08:30am NW 3 4 - - - - - - - 13.0 1019.7 1.2
18/08:00am W 2 3 - - - - - - - 12.2 1019.6 1.2
18/07:30am NNW 2 3 - - - - - - - 11.6 1019.8 1.2
18/07:00am NW 1 4 - - - - - - - 11.9 1019.8 1.2
18/06:30am NW 2 3 - - - - - - - 11.9 1019.5 1.2
18/06:00am W 5 7 - - - - - - - 11.5 1019.4 1.2
18/05:30am NW 3 4 - - - - - - - 11.3 1019.5 1.2
18/05:00am N 2 3 - - - - - - - 11.3 1019.4 1.2
18/04:30am WSW 1 3 - - - - - - - 10.9 1019.4 1.2
18/04:00am WNW 2 3 - - - - - - - 11.0 1019.7 1.2
18/03:30am W 3 4 - - - - - - - 10.8 1019.7 1.2
18/03:00am S 2 3 - - - - - - - 10.8 1019.9 1.2
18/02:30am WSW 4 6 - - - - - - - 11.2 1020.1 1.2
18/02:00am WSW 4 6 - - - - - - - 11.4 1020.4 1.2
18/01:30am WSW 6 9 - - - - - - - 11.6 1020.5 1.2
18/01:00am WSW 6 8 - - - - - - - 11.7 1020.7 1.2
18/12:30am WSW 6 9 - - - - - - - 11.7 1020.9 1.2
18/12:00am SW 6 9 - - - - - - Recent precip. 11.9 1021.2 0.8
 
Date/Time
EST
Wind Sea
Height
m
Swell Vis
km
Cloud Weather Temp
°C
Press
hPa
Rain since
9am
mm
Dir  Spd
kts
Gust
kts
Height
m
Period
s
Dir
17/11:30pm SW 5 7 - - - - - - - 12.2 1021.5 0.8
17/11:00pm WSW 6 10 - - - - - - - 12.6 1021.6 0.6
17/10:30pm SW 6 10 - - - - - - - 12.6 1021.7 0.6
17/10:00pm SW 5 8 - - - - - - - 12.4 1021.6 0.6
17/09:30pm WSW 5 7 - - - - - - - 12.8 1021.7 0.6
17/09:00pm SW 5 8 - - - - - - - 12.9 1022.0 0.6
17/08:30pm WSW 6 8 - - - - - - - 12.7 1022.1 0.6
17/08:00pm WSW 6 8 - - - - - - - 12.3 1021.9 0.6
17/07:30pm SW 6 8 - - - - - - - 12.2 1021.9 0.6
17/07:00pm SW 6 9 - - - - - - - 12.7 1021.8 0.6
17/06:30pm SW 7 11 - - - - - - - 13.0 1021.7 0.6
17/06:00pm SW 5 9 - - - - - - - 12.7 1021.6 0.6
17/05:30pm SW 6 8 - - - - - - - 12.8 1021.4 0.6
17/05:00pm SW 5 9 - - - - - - - 13.0 1021.4 0.6
17/04:30pm SW 6 11 - - - - - - - 13.6 1021.3 0.6
17/04:00pm SW 8 11 - - - - - - - 13.8 1021.1 0.6
17/03:30pm SSW 9 14 - - - - - - - 14.1 1021.1 0.6
17/03:00pm SSW 10 15 - - - - - - - 14.4 1021.0 0.6
17/02:30pm SSW 10 16 - - - - - - - 14.1 1020.9 0.6
17/02:00pm SSW 11 17 - - - - - - - 13.8 1021.1 0.6
17/01:30pm SSW 13 19 - - - - - - - 13.9 1020.9 0.6
17/01:00pm SSW 9 14 - - - - - - - 13.9 1021.2 0.6
17/12:30pm SW 10 15 - - - - - - - 13.7 1021.3 0.6
17/12:00pm SW 9 18 - - - - - - - 13.6 1021.5 0.6
17/11:30am SSW 12 17 - - - - - - - 13.9 1021.8 0.6
17/11:00am SW 11 17 - - - - - - - 13.0 1022.0 0.6
17/10:30am SW 11 18 - - - - - - - 12.9 1022.2 0.6
17/10:00am SW 10 16 - - - - - - - 12.8 1022.3 0.6
17/09:30am SW 9 14 - - - - - - - 11.9 1022.4 0.2
17/09:00am SW 9 14 - - - - - - - 11.6 1022.3 32.2
17/08:30am SW 9 15 - - - - - - - 11.4 1022.0 32.2
17/08:00am SW 10 16 - - - - - - - 10.9 1021.7 32.2
17/07:30am SW 8 15 - - - - - - - 10.8 1021.3 32.2
17/07:00am SW 9 15 - - - - - - - 10.7 1021.2 32.2
17/06:30am SW 8 13 - - - - - - - 10.8 1021.0 31.6
17/06:00am SW 10 16 - - - - - - Recent precip. 10.9 1020.8 31.4
17/05:30am SW 10 18 - - - - - - - 11.0 1020.6 31.2
17/05:00am SW 9 15 - - - - - - - 11.1 1020.3 29.4
17/04:30am SW 9 14 - - - - - - - 11.2 1020.3 28.8
17/04:00am SW 9 13 - - - - - - - 11.2 1020.4 28.6
17/03:30am SW 9 14 - - - - - - - 11.5 1020.2 28.6
17/03:00am SW 7 13 - - - - - - Recent precip. 11.2 1020.4 28.0
17/02:30am WSW 3 7 - - - - - - - 11.3 1020.7 26.6
17/02:00am WSW 7 11 - - - - - - - 11.3 1020.9 22.4
17/01:30am WSW 6 10 - - - - - - - 11.2 1021.0 21.0
17/01:00am WSW 5 9 - - - - - - - 11.1 1021.2 18.4
17/12:30am WSW 4 6 - - - - - - - 11.1 1021.4 18.2
17/12:00am W 4 7 - - - - - - Rain 11.3 1021.6 18.0
 
Date/Time
EST
Wind Sea
Height
m
Swell Vis
km
Cloud Weather Temp
°C
Press
hPa
Rain since
9am
mm
Dir  Spd
kts
Gust
kts
Height
m
Period
s
Dir
16/11:30pm WSW 3 5 - - - - - - - 11.3 1021.9 17.0
16/11:00pm WSW 4 7 - - - - - - - 11.2 1022.0 15.0
16/10:30pm WSW 4 5 - - - - - - - 11.4 1022.0 13.2
16/10:00pm WNW 1 3 - - - - - - - 11.4 1021.9 10.0
16/09:30pm NNW 2 4 - - - - - - - 11.6 1021.6 9.6
16/09:00pm SE 2 6 - - - - - - Rain 11.7 1021.6 7.8
16/08:30pm WSW 7 11 - - - - - - - 11.7 1021.5 5.2
16/08:00pm WSW 6 10 - - - - - - - 11.6 1021.2 5.0
16/07:30pm WSW 5 9 - - - - - - - 11.5 1021.1 5.0
16/07:00pm W 4 7 - - - - - - - 11.5 1020.9 5.0
16/06:30pm WSW 5 8 - - - - - - - 11.5 1020.9 5.0
16/06:00pm WSW 6 9 - - - - - - - 11.6 1020.9 5.0
16/05:30pm SW 6 10 - - - - - - - 11.5 1020.7 5.0
16/05:00pm WSW 5 8 - - - - - - - 11.6 1020.9 5.0
16/04:30pm SW 5 7 - - - - - - - 11.9 1020.8 5.0
16/04:00pm WSW 5 7 - - - - - - - 12.4 1020.8 5.0
16/03:30pm SSW 4 7 - - - - - - - 13.0 1020.9 4.6
16/03:00pm SSE 6 10 - - - - - - Rain 13.1 1020.8 3.0
16/02:30pm WSW 5 8 - - - - - - - 12.6 1020.5 0.2
16/02:00pm SW 5 7 - - - - - - - 13.0 1020.5 0.0
16/01:30pm SW 5 7 - - - - - - - 14.3 1020.7 0.0
16/01:00pm SW 4 6 - - - - - - - 14.5 1021.0 0.0
16/12:30pm WSW 5 7 - - - - - - - 14.1 1021.4 0.0
16/12:00pm SW 6 8 - - - - - - - 14.3 1021.6 0.0
16/11:30am WSW 5 9 - - - - - - - 13.8 1022.2 0.0
16/11:00am WSW 6 9 - - - - - - - 13.6 1022.4 0.0
16/10:30am SW 7 10 - - - - - - - 13.6 1022.5 0.0
16/10:00am WSW 6 9 - - - - - - - 13.3 1022.6 0.0
16/09:30am SW 6 10 - - - - - - - 13.4 1022.6 0.0
16/09:00am SW 6 11 - - - - - - - 13.4 1022.3 0.0

Other formats

Comma delimited format used in spreadsheet applications
http://www.bom.gov.au/fwo/IDN60701/IDN60701.94938.axf

JavaScript Object Notation format (JSON) in row-major order
http://www.bom.gov.au/fwo/IDN60701/IDN60701.94938.json

Data quality

Most of these data are generated automatically and are frequently updated. Quality checks on data are not normally performed. It is possible for incorrect values to appear. Refer to information at About Latest Weather Observations and please check the disclaimer before using these data.